^^
Datos históricos de la estación: Murcia-Puente Tocinos
Diario Informe para Septiembre 29, 2019 Unidades:  Métrico    Ingés   Ambas
Diario Semanal Mensual Anual
  Máxima: Mínima: Promedio:
Temperatura: 23.2 °C 16.9 °C 20 °C
Punto de rocio: 15.9 °C 6.1 °C 11.9 °C
Humedad: 86% 40% 62%
Velocidad viento: 19km/h 0km/h 8.4km/h
Racha viento: 40.2km/h - -
Viento- - Este
Presión: 1022.3 hPa 1015.6 hPa -
Precipitación: 0.0 mm    
 
 
Tabla de datos para Septiembre 29, 2019
Hora Temperatura Punto de rocio Presión Viento Velocidad viento Racha viento Humedad Intensidad lluvia(por hora) Nubes
00:04 18.7 °C 15.8 °C 1015.6 hPa NE 10 km/h 17.7 km/h 83.3% 0.0 mm
00:09 18.7 °C 15.9 °C 1015.6 hPa NE 9.8 km/h 14.5 km/h 84% 0.0 mm
00:14 18.7 °C 15.9 °C 1015.6 hPa NNE 9.5 km/h 13 km/h 84% 0.0 mm
00:19 18.7 °C 15.9 °C 1015.6 hPa NNE 8.8 km/h 13 km/h 84% 0.0 mm
00:24 18.6 °C 15.8 °C 1015.6 hPa NNE 7.6 km/h 9.7 km/h 84% 0.0 mm
00:29 18.6 °C 15.8 °C 1015.6 hPa NNE 6.9 km/h 9.7 km/h 84% 0.0 mm
00:34 18.6 °C 15.8 °C 1015.7 hPa NNE 5.8 km/h 10 km/h 84% 0.0 mm
00:39 18.6 °C 15.8 °C 1015.7 hPa NNE 5.5 km/h 9.7 km/h 84% 0.0 mm
00:44 18.6 °C 15.8 °C 1015.7 hPa NNE 5 km/h 9.7 km/h 84% 0.0 mm
00:49 18.6 °C 15.8 °C 1015.7 hPa NNE 4.9 km/h 8.4 km/h 84% 0.0 mm
00:54 18.6 °C 15.8 °C 1015.7 hPa NNE 4.7 km/h 8 km/h 84% 0.0 mm
00:59 18.6 °C 15.8 °C 1015.7 hPa NE 4.3 km/h 9.5 km/h 83.9% 0.0 mm
01:04 18.6 °C 15.7 °C 1015.8 hPa NE 3.9 km/h 9.7 km/h 83% 0.0 mm
01:09 18.6 °C 15.7 °C 1015.8 hPa NE 4.6 km/h 9.7 km/h 83% 0.0 mm
01:14 18.6 °C 15.7 °C 1015.8 hPa NE 5.8 km/h 9.7 km/h 83% 0.0 mm
01:19 18.6 °C 15.7 °C 1015.8 hPa NE 5.8 km/h 9.7 km/h 83% 0.0 mm
01:24 18.6 °C 15.7 °C 1015.8 hPa Este 5.8 km/h 9.3 km/h 83% 0.0 mm
01:29 18.7 °C 15.8 °C 1015.8 hPa ENE 5.1 km/h 9.7 km/h 83% 0.0 mm
01:34 18.7 °C 15.6 °C 1016.0 hPa NNE 3.9 km/h 8 km/h 82.1% 0.0 mm
01:39 18.7 °C 15.6 °C 1016.0 hPa NNE 3.6 km/h 8 km/h 82% 0.0 mm
01:44 18.7 °C 15.6 °C 1016.0 hPa North 3.2 km/h 8 km/h 82% 0.0 mm
01:49 18.7 °C 15.6 °C 1016.0 hPa North 3.1 km/h 5.8 km/h 82% 0.0 mm
01:54 18.7 °C 15.6 °C 1016.0 hPa NNO 2.9 km/h 6.4 km/h 82% 0.0 mm
01:59 18.7 °C 15.5 °C 1016.0 hPa NNO 2.9 km/h 8 km/h 82% 0.0 mm
02:04 18.6 °C 15.6 °C 1016.1 hPa NNO 2.9 km/h 8 km/h 82.8% 0.0 mm
02:09 18.6 °C 15.7 °C 1016.1 hPa NNO 3 km/h 8 km/h 83% 0.0 mm
02:14 18.6 °C 15.7 °C 1016.1 hPa NNO 3.2 km/h 7.4 km/h 83% 0.0 mm
02:19 18.6 °C 15.7 °C 1016.1 hPa NNO 2.9 km/h 8 km/h 83% 0.0 mm
02:24 18.6 °C 15.7 °C 1016.1 hPa NNO 2.2 km/h 5.6 km/h 83% 0.0 mm
02:29 18.6 °C 15.7 °C 1016.1 hPa NNO 1.4 km/h 4.8 km/h 83% 0.0 mm
02:34 18.6 °C 15.7 °C 1016.1 hPa Calm   3.9 km/h 83% 0.0 mm
02:39 18.6 °C 15.7 °C 1016.1 hPa Calm   3.9 km/h 83% 0.0 mm
02:44 18.6 °C 15.5 °C 1016.1 hPa Calm   5.8 km/h 82.2% 0.0 mm
02:49 18.6 °C 15.5 °C 1016.1 hPa NNO 0.8 km/h 6.4 km/h 82% 0.0 mm
02:54 18.7 °C 15.5 °C 1016.0 hPa NNO 2.2 km/h 4.8 km/h 82% 0.0 mm
02:59 18.7 °C 15.6 °C 1016.0 hPa NNO 1.3 km/h 3.7 km/h 82% 0.0 mm
03:04 18.7 °C 15.4 °C 1016.1 hPa Calm   5.8 km/h 81.3% 0.0 mm
03:09 18.7 °C 15.4 °C 1016.1 hPa Oeste 1.1 km/h 6.4 km/h 81% 0.0 mm
03:14 18.7 °C 15.4 °C 1016.1 hPa Oeste 2.9 km/h 7.4 km/h 81% 0.0 mm
03:19 18.7 °C 15.2 °C 1016.1 hPa Oeste 3 km/h 8 km/h 80.1% 0.0 mm
03:24 18.7 °C 15.3 °C 1016.1 hPa SSO 3.2 km/h 8 km/h 80.8% 0.0 mm
03:29 18.7 °C 15.5 °C 1016.1 hPa Sur 3.5 km/h 8 km/h 81.6% 0.0 mm
03:34 18.7 °C 15.5 °C 1016.2 hPa Sur 3.9 km/h 8 km/h 81.6% 0.0 mm
03:39 18.6 °C 15.3 °C 1016.2 hPa Sur 2.5 km/h 4.8 km/h 81.3% 0.0 mm
03:44 18.4 °C 15.3 °C 1016.2 hPa Calm     82% 0.0 mm
03:49 18.4 °C 15.3 °C 1016.3 hPa Calm     82% 0.0 mm
03:54 18.3 °C 15.4 °C 1016.3 hPa Calm     82.9% 0.0 mm
03:59 18.3 °C 15.4 °C 1016.3 hPa Calm   7.6 km/h 83% 0.0 mm
04:04 18.3 °C 15.4 °C 1016.5 hPa Calm   8 km/h 83.2% 0.0 mm
04:09 18.3 °C 15.6 °C 1016.5 hPa Oeste 1.3 km/h 8 km/h 84% 0.0 mm
04:14 18.3 °C 15.6 °C 1016.5 hPa OSO 3.9 km/h 8.4 km/h 84% 0.0 mm
04:19 18.3 °C 15.6 °C 1016.6 hPa SO 4.2 km/h 9.5 km/h 84% 0.0 mm
04:24 18.3 °C 15.6 °C 1016.6 hPa OSO 4.7 km/h 11.1 km/h 84% 0.0 mm
04:29 18.3 °C 15.6 °C 1016.6 hPa OSO 5.1 km/h 11.3 km/h 84% 0.0 mm
04:34 18.3 °C 15.6 °C 1016.6 hPa SO 5.8 km/h 11.1 km/h 84% 0.0 mm
04:39 18.3 °C 15.5 °C 1016.6 hPa SSO 6 km/h 11.3 km/h 84% 0.0 mm
04:44 18.2 °C 15.4 °C 1016.6 hPa SSO 6.5 km/h 11.3 km/h 84% 0.0 mm
04:49 18.2 °C 15.4 °C 1016.6 hPa SO 6.2 km/h 11.1 km/h 84% 0.0 mm
04:54 18.2 °C 15.4 °C 1016.6 hPa OSO 5.8 km/h 11.3 km/h 84% 0.0 mm
04:59 18.2 °C 15.4 °C 1016.6 hPa OSO 4.8 km/h 8 km/h 84% 0.0 mm
05:04 18.2 °C 15.4 °C 1016.7 hPa OSO 3.2 km/h 6.9 km/h 84% 0.0 mm
05:09 18.2 °C 15.4 °C 1016.7 hPa SO 3.1 km/h 8 km/h 84% 0.0 mm
05:14 18.2 °C 15.4 °C 1016.7 hPa SO 2.9 km/h 7.4 km/h 84% 0.0 mm
05:19 18.2 °C 15.4 °C 1016.8 hPa OSO 2.9 km/h 8 km/h 84% 0.0 mm
05:24 18.1 °C 15.3 °C 1016.8 hPa OSO 2.9 km/h 8 km/h 84% 0.0 mm
05:29 18.1 °C 15.3 °C 1016.8 hPa OSO 3 km/h 8 km/h 84% 0.0 mm
05:34 18.1 °C 15.3 °C 1016.8 hPa OSO 3.2 km/h 8 km/h 84% 0.0 mm
05:39 18.1 °C 15.3 °C 1016.8 hPa SO 3.5 km/h 8.4 km/h 84% 0.0 mm
05:44 18 °C 15.3 °C 1016.8 hPa Sur 3.9 km/h 8.4 km/h 84% 0.0 mm
05:49 17.9 °C 15.3 °C 1016.8 hPa SSE 4.3 km/h 8 km/h 85% 0.0 mm
05:54 17.8 °C 15.3 °C 1016.8 hPa SSE 5 km/h 8 km/h 85% 0.0 mm
05:59 17.8 °C 15.2 °C 1016.8 hPa Sur 5 km/h 8 km/h 85% 0.0 mm
06:04 17.8 °C 15.2 °C 1016.9 hPa Sur 5 km/h 8 km/h 85% 0.0 mm
06:09 17.8 °C 15.2 °C 1016.9 hPa Sur 4.6 km/h 8 km/h 85% 0.0 mm
06:14 17.8 °C 15.2 °C 1016.9 hPa SSE 3.9 km/h 8 km/h 85% 0.0 mm
06:19 17.8 °C 15.2 °C 1017.1 hPa Sur 3.9 km/h 8 km/h 84.7% 0.0 mm
06:24 17.7 °C 15 °C 1017.1 hPa SSE 3.9 km/h 5.8 km/h 84% 0.0 mm
06:29 17.7 °C 14.9 °C 1017.1 hPa SSE 3.3 km/h 6.4 km/h 84% 0.0 mm
06:34 17.6 °C 14.8 °C 1017.1 hPa SSE 2.2 km/h 4.8 km/h 84% 0.0 mm
06:39 17.4 °C 14.7 °C 1017.1 hPa SSE 1.4 km/h 8.7 km/h 84% 0.0 mm
06:44 17.3 °C 14.6 °C 1017.1 hPa Calm   9.7 km/h 84.4% 0.0 mm
06:49 17.2 °C 14.6 °C 1017.3 hPa ESE 1.1 km/h 8 km/h 85% 0.0 mm
06:54 17.1 °C 14.7 °C 1017.3 hPa ESE 2.9 km/h   85.8% 0.0 mm
06:59 17.1 °C 14.7 °C 1017.3 hPa ESE 1.8 km/h   85.8% 0.0 mm
07:04 17.1 °C 14.5 °C 1017.6 hPa Calm     85% 0.0 mm
07:09 16.9 °C 14.4 °C 1017.6 hPa Calm     85% 0.0 mm
07:14 16.9 °C 14.3 °C 1017.6 hPa Calm   2.3 km/h 85% 0.0 mm
07:19 16.9 °C 14.4 °C 1017.6 hPa Calm   1.6 km/h 85.5% 0.0 mm
07:24 16.9 °C 14.6 °C 1017.6 hPa Calm     86% 0.0 mm
07:29 16.9 °C 14.6 °C 1017.6 hPa Calm     86% 0.0 mm
07:34 17.1 °C 14.7 °C 1017.9 hPa Calm   5 km/h 86% 0.0 mm
07:39 17.2 °C 14.9 °C 1017.9 hPa Calm   6.4 km/h 86% 0.0 mm
07:44 17.5 °C 14.9 °C 1017.9 hPa Calm   6.4 km/h 85.1% 0.0 mm
07:49 17.6 °C 14.9 °C 1018.2 hPa ENE 1 km/h 6.4 km/h 84.1% 0.0 mm
07:54 17.7 °C 14.9 °C 1018.2 hPa ENE 2.9 km/h 6.9 km/h 83.3% 0.0 mm
07:59 17.8 °C 14.7 °C 1018.2 hPa Este 2.9 km/h 8 km/h 82.2% 0.0 mm
08:04 17.7 °C 14.6 °C 1018.4 hPa ESE 2.9 km/h 8.4 km/h 82% 0.0 mm
08:09 17.6 °C 14.6 °C 1018.4 hPa ESE 3.2 km/h 8 km/h 82.8% 0.0 mm
08:14 17.7 °C 14.7 °C 1018.4 hPa Este 3.9 km/h 8.4 km/h 83% 0.0 mm
08:19 17.8 °C 14.9 °C 1018.5 hPa NE 4.1 km/h 8.4 km/h 83% 0.0 mm
08:24 17.9 °C 15 °C 1018.5 hPa NE 4.7 km/h 8 km/h 83% 0.0 mm
08:29 18.2 °C 15 °C 1018.5 hPa ENE 4.1 km/h 8.4 km/h 82.1% 0.0 mm
08:34 18.3 °C 15.1 °C 1018.7 hPa NE 3.2 km/h 8 km/h 82% 0.0 mm
08:39 18.6 °C 15.3 °C 1018.7 hPa NNE 3.2 km/h 7.4 km/h 81.4% 0.0 mm
08:44 18.8 °C 15.2 °C 1018.7 hPa North 3.2 km/h 8 km/h 79.8% 0.0 mm
08:49 19 °C 15 °C 1018.8 hPa NE 3.1 km/h 8 km/h 77.5% 0.0 mm
08:54 19.1 °C 14.5 °C 1018.8 hPa NE 2.9 km/h 9.3 km/h 75% 0.0 mm
08:59 18.9 °C 14 °C 1018.8 hPa NE 4.1 km/h 11.1 km/h 73.2% 0.0 mm
09:04 18.7 °C 13.7 °C 1018.8 hPa NE 5.8 km/h 13 km/h 72.6% 0.0 mm
09:09 18.7 °C 13.3 °C 1018.8 hPa ENE 6.7 km/h 16.7 km/h 70.7% 0.0 mm
09:14 18.8 °C 13.2 °C 1018.8 hPa NE 8.4 km/h 18.5 km/h 70% 0.0 mm
09:19 18.9 °C 13 °C 1019.0 hPa NE 8.5 km/h 19.3 km/h 68.6% 0.0 mm
09:24 18.9 °C 12.4 °C 1019.0 hPa NE 8.7 km/h 18 km/h 66% 0.0 mm
09:29 19 °C 11.9 °C 1019.0 hPa NE 9 km/h 20.9 km/h 63.2% 0.0 mm
09:34 19.2 °C 11.6 °C 1019.1 hPa NE 9.5 km/h 20.9 km/h 61.5% 0.0 mm
09:39 19.3 °C 11.9 °C 1019.1 hPa NE 9.7 km/h 20.9 km/h 62.4% 0.0 mm
09:44 19.4 °C 11.7 °C 1019.1 hPa NE 10 km/h 20.4 km/h 61.1% 0.0 mm
09:49 19.5 °C 11.1 °C 1019.3 hPa NE 10.4 km/h 20.9 km/h 58.5% 0.0 mm
09:54 19.8 °C 11 °C 1019.3 hPa NE 11.1 km/h 19.3 km/h 56.9% 0.0 mm
09:59 20 °C 10.9 °C 1019.3 hPa NE 10.8 km/h 18.5 km/h 55.7% 0.0 mm
10:04 20.2 °C 10.9 °C 1019.3 hPa NE 10.3 km/h 19.3 km/h 55.1% 0.0 mm
10:09 20.2 °C 11.2 °C 1019.2 hPa Este 10.2 km/h 19.3 km/h 56% 0.0 mm
10:14 20.4 °C 11.1 °C 1019.2 hPa Este 10 km/h 16.1 km/h 55.4% 0.0 mm
10:19 20.4 °C 11 °C 1019.2 hPa ESE 9.8 km/h 16.7 km/h 54.9% 0.0 mm
10:24 20.4 °C 10.9 °C 1019.1 hPa Este 9.5 km/h 18.5 km/h 54.5% 0.0 mm
10:29 20.5 °C 10.6 °C 1019.1 hPa NE 9.8 km/h 19.3 km/h 53.1% 0.0 mm
10:34 20.4 °C 10.5 °C 1019.1 hPa NE 10.3 km/h 22.2 km/h 53% 0.0 mm
10:39 20.4 °C 10.7 °C 1019.1 hPa ENE 10.2 km/h 22.5 km/h 53.5% 0.0 mm
10:44 20.7 °C 10.9 °C 1019.1 hPa NE 10 km/h 20.9 km/h 53.2% 0.0 mm
10:49 20.9 °C 10.8 °C 1019.1 hPa ENE 9.8 km/h 20.9 km/h 52.7% 0.0 mm
10:54 20.8 °C 10.6 °C 1019.1 hPa NE 9.5 km/h 19 km/h 52% 0.0 mm
10:59 20.8 °C 10.8 °C 1019.1 hPa NE 9.8 km/h 25.1 km/h 52.7% 0.0 mm
11:04 20.9 °C 10.8 °C 1019.1 hPa NE 10.3 km/h 25.7 km/h 52.5% 0.0 mm
11:09 20.9 °C 10.7 °C 1019.1 hPa NE 10.9 km/h 20.4 km/h 52.2% 0.0 mm
11:14 21 °C 10.8 °C 1019.1 hPa ENE 11.9 km/h 22.2 km/h 52.4% 0.0 mm
11:19 21 °C 10.6 °C 1019.3 hPa ENE 11.3 km/h 22.5 km/h 51.7% 0.0 mm
11:24 21 °C 11 °C 1019.3 hPa NE 10.3 km/h 20.9 km/h 52.7% 0.0 mm
11:29 21.2 °C 11.1 °C 1019.3 hPa NE 10.3 km/h 24.5 km/h 52.5% 0.0 mm
11:34 21.1 °C 10.8 °C 1019.3 hPa NE 10.3 km/h 24.1 km/h 52% 0.0 mm
11:39 20.9 °C 10.7 °C 1019.2 hPa ENE 11 km/h 19.3 km/h 52% 0.0 mm
11:44 21 °C 10.8 °C 1019.2 hPa NE 12.2 km/h 19.3 km/h 52% 0.0 mm
11:49 21.3 °C 10.8 °C 1019.2 hPa ENE 10 km/h 14.8 km/h 51% 0.0 mm
11:54 21.6 °C 10.7 °C 1019.0 hPa NNE 6.5 km/h 14.8 km/h 49.9% 0.0 mm
11:59 21.6 °C 10.7 °C 1019.0 hPa NNE 6.5 km/h 16.7 km/h 49.8% 0.0 mm
12:04 21.7 °C 10.7 °C 1019.1 hPa North 6.5 km/h 16.1 km/h 49.9% 0.0 mm
12:09 21.9 °C 11 °C 1019.1 hPa NNE 6.5 km/h 14.8 km/h 50% 0.0 mm
12:14 22.1 °C 11.1 °C 1019.1 hPa North 6.5 km/h 14.5 km/h 49.7% 0.0 mm
12:19 21.9 °C 11.1 °C 1019.1 hPa NE 7.3 km/h 18.5 km/h 50.3% 0.0 mm
12:24 21.8 °C 11.5 °C 1019.0 hPa ENE 8.7 km/h 20.9 km/h 51.9% 0.0 mm
12:29 21.8 °C 11.5 °C 1019.0 hPa NNE 9.3 km/h 24.1 km/h 51.9% 0.0 mm
12:34 21.7 °C 11.4 °C 1019.0 hPa NNE 10.3 km/h 24.1 km/h 52.1% 0.0 mm
12:39 21.8 °C 11.5 °C 1019.0 hPa ENE 10.6 km/h 22.5 km/h 51.8% 0.0 mm
12:44 21.9 °C 11.4 °C 1019.0 hPa ENE 11.1 km/h 25.9 km/h 51.3% 0.0 mm
12:49 21.9 °C 11.5 °C 1019.1 hPa ENE 11.1 km/h 25.7 km/h 51.5% 0.0 mm
12:54 22 °C 11.6 °C 1019.1 hPa NE 11.1 km/h 25.9 km/h 51.7% 0.0 mm
12:59 22.2 °C 11.6 °C 1019.1 hPa NE 12.3 km/h 25.7 km/h 51% 0.0 mm
13:04 22.3 °C 11.6 °C 1019.1 hPa ENE 14 km/h 20.9 km/h 50.8% 0.0 mm
13:09 22.3 °C 11.4 °C 1018.9 hPa NE 13.2 km/h 22.2 km/h 50.3% 0.0 mm
13:14 22.1 °C 11.5 °C 1018.9 hPa Este 11.9 km/h 22.5 km/h 50.8% 0.0 mm
13:19 22.3 °C 11.4 °C 1018.9 hPa NE 10.4 km/h 16.7 km/h 50.2% 0.0 mm
13:24 22.4 °C 11.3 °C 1018.7 hPa NE 7.6 km/h 26.2 km/h 49.5% 0.0 mm
13:29 22.2 °C 11.2 °C 1018.7 hPa NNE 9.6 km/h 30.6 km/h 49.8% 0.0 mm
13:34 22.2 °C 11.1 °C 1018.7 hPa ENE 13 km/h 30.6 km/h 49.4% 0.0 mm
13:39 22.3 °C 11.1 °C 1018.6 hPa NE 12 km/h 24.1 km/h 49% 0.0 mm
13:44 22.3 °C 11.1 °C 1018.6 hPa ENE 10.3 km/h 24.1 km/h 49.1% 0.0 mm
13:49 22.4 °C 11.1 °C 1018.6 hPa ENE 10.6 km/h 22.5 km/h 49% 0.0 mm
13:54 22.4 °C 11.2 °C 1018.5 hPa NE 11.1 km/h 22.5 km/h 49% 0.0 mm
13:59 22.7 °C 11.2 °C 1018.5 hPa NE 10.7 km/h 19.3 km/h 48.5% 0.0 mm
14:04 22.8 °C 11.2 °C 1018.5 hPa NE 10 km/h 24.1 km/h 48.1% 0.0 mm
14:09 22.9 °C 11.2 °C 1018.3 hPa NE 10.7 km/h 24.1 km/h 47.9% 0.0 mm
14:14 23 °C 11.2 °C 1018.3 hPa Este 11.9 km/h 20.9 km/h 47.5% 0.0 mm
14:19 23.2 °C 11.2 °C 1018.3 hPa ENE 11.3 km/h 20.9 km/h 46.8% 0.0 mm
14:24 23.2 °C 11.2 °C 1018.3 hPa NE 10.3 km/h 24.5 km/h 46.9% 0.0 mm
14:29 23.2 °C 11.1 °C 1018.3 hPa NE 11 km/h 34.3 km/h 46.5% 0.0 mm
14:34 22.9 °C 10.8 °C 1018.3 hPa NE 12.2 km/h 33.8 km/h 46.4% 0.0 mm
14:39 23 °C 10.9 °C 1018.3 hPa NE 14.1 km/h 33.3 km/h 46.7% 0.0 mm
14:44 23.1 °C 10.7 °C 1018.3 hPa ENE 17.2 km/h 33.8 km/h 45.5% 0.0 mm
14:49 22.8 °C 10.6 °C 1018.3 hPa NE 16.3 km/h 32.8 km/h 46.1% 0.0 mm
14:54 22.6 °C 10.6 °C 1018.2 hPa NE 14.8 km/h 33.8 km/h 46.6% 0.0 mm
14:59 22.6 °C 10.7 °C 1018.2 hPa NE 16.4 km/h 33.8 km/h 46.8% 0.0 mm
15:04 22.5 °C 10.6 °C 1018.3 hPa NE 19 km/h 30.6 km/h 47% 0.0 mm
15:09 22.3 °C 10.5 °C 1018.3 hPa NE 18.6 km/h 34.3 km/h 47% 0.0 mm
15:14 22.4 °C 10.7 °C 1018.3 hPa ENE 18 km/h 35.9 km/h 47.4% 0.0 mm
15:19 22.3 °C 10.5 °C 1018.4 hPa ENE 17.5 km/h 35.4 km/h 46.9% 0.0 mm
15:24 22.3 °C 10.4 °C 1018.4 hPa NE 16.4 km/h 35.2 km/h 47% 0.0 mm
15:29 22.4 °C 10.4 °C 1018.4 hPa NE 16.4 km/h 35.4 km/h 46.6% 0.0 mm
15:34 22.3 °C 10.3 °C 1018.5 hPa NE 16.4 km/h 30.6 km/h 46.5% 0.0 mm
15:39 22.2 °C 10.3 °C 1018.5 hPa NE 17 km/h 30.6 km/h 46.9% 0.0 mm
15:44 22.1 °C 10.1 °C 1018.5 hPa NE 18 km/h 34.3 km/h 46.5% 0.0 mm
15:49 21.9 °C 10.1 °C 1018.5 hPa NE 18.4 km/h 33.8 km/h 47.2% 0.0 mm
15:54 22.2 °C 10.1 °C 1018.4 hPa NE 19 km/h 34.3 km/h 46.4% 0.0 mm
15:59 22.2 °C 9.9 °C 1018.4 hPa ENE 18.7 km/h 33.8 km/h 45.9% 0.0 mm
16:04 22.1 °C 9.7 °C 1018.6 hPa NE 18.4 km/h 34.6 km/h 45.2% 0.0 mm
16:09 22.2 °C 9.7 °C 1018.6 hPa ENE 17.6 km/h 35.4 km/h 45.2% 0.0 mm
16:14 22.2 °C 9.7 °C 1018.6 hPa ENE 16.4 km/h 39.6 km/h 45.1% 0.0 mm
16:19 22.2 °C 9.9 °C 1018.6 hPa ENE 16.1 km/h 40.2 km/h 45.5% 0.0 mm
16:24 22.2 °C 9.8 °C 1018.6 hPa ENE 15.6 km/h 33.3 km/h 45.2% 0.0 mm
16:29 22.1 °C 9.8 °C 1018.6 hPa ENE 15.3 km/h 33.8 km/h 45.6% 0.0 mm
16:34 21.9 °C 9.7 °C 1018.6 hPa NE 14.8 km/h 29 km/h 45.8% 0.0 mm
16:39 22 °C 9.7 °C 1018.6 hPa NE 16.2 km/h 31.7 km/h 45.7% 0.0 mm
16:44 21.8 °C 9.6 °C 1018.6 hPa NE 18.4 km/h 32.2 km/h 45.8% 0.0 mm
16:49 21.8 °C 9.6 °C 1018.6 hPa NE 18.2 km/h 30.6 km/h 46% 0.0 mm
16:54 21.9 °C 9.5 °C 1018.6 hPa NE 18 km/h 33.3 km/h 45.2% 0.0 mm
16:59 21.7 °C 9.3 °C 1018.6 hPa NE 18 km/h 33.8 km/h 45.1% 0.0 mm
17:04 21.6 °C 9.4 °C 1018.6 hPa NE 18 km/h 32.2 km/h 45.6% 0.0 mm
17:09 21.8 °C 9.2 °C 1018.6 hPa ENE 17.1 km/h 29 km/h 44.5% 0.0 mm
17:14 21.8 °C 9 °C 1018.6 hPa NE 15.6 km/h 33.3 km/h 43.9% 0.0 mm
17:19 22 °C 8.9 °C 1018.6 hPa ENE 14.9 km/h 33.8 km/h 43.1% 0.0 mm
17:24 22.1 °C 8.7 °C 1018.6 hPa ENE 13.7 km/h 29.8 km/h 42.5% 0.0 mm
17:29 22.1 °C 8.5 °C 1018.6 hPa Este 13.7 km/h 30.6 km/h 42% 0.0 mm
17:34 22 °C 8.7 °C 1018.6 hPa ENE 13.7 km/h 22.5 km/h 42.4% 0.0 mm
17:39 22.1 °C 8.5 °C 1018.6 hPa Este 13.8 km/h 24.5 km/h 41.8% 0.0 mm
17:44 22.1 °C 8.6 °C 1018.6 hPa ENE 14 km/h 24.1 km/h 42% 0.0 mm
17:49 22.1 °C 8.3 °C 1018.6 hPa ENE 14 km/h 27.8 km/h 41.4% 0.0 mm
17:54 22.2 °C 8.4 °C 1018.6 hPa ENE 14 km/h 27.4 km/h 41.4% 0.0 mm
17:59 22.2 °C 8.3 °C 1018.6 hPa NE 13.9 km/h 27.4 km/h 41% 0.0 mm
18:04 22.1 °C 8.2 °C 1018.6 hPa ENE 13.7 km/h 29.8 km/h 41% 0.0 mm
18:09 21.9 °C 8.1 °C 1018.6 hPa Este 14.6 km/h 30.6 km/h 41% 0.0 mm
18:14 21.9 °C 8.3 °C 1018.6 hPa ENE 16.1 km/h 25.9 km/h 41.5% 0.0 mm
18:19 22.1 °C 8.3 °C 1018.7 hPa ENE 15.3 km/h 28.2 km/h 41.4% 0.0 mm
18:24 21.9 °C 8.2 °C 1018.7 hPa NE 14 km/h 27.8 km/h 41.6% 0.0 mm
18:29 21.8 °C 8.3 °C 1018.7 hPa NE 14.3 km/h 27.4 km/h 41.8% 0.0 mm
18:34 21.7 °C 8 °C 1018.7 hPa NE 14.8 km/h 30.6 km/h 41.3% 0.0 mm
18:39 21.7 °C 8 °C 1018.6 hPa NE 15.1 km/h 29 km/h 41.2% 0.0 mm
18:44 21.8 °C 8.2 °C 1018.6 hPa ENE 15.6 km/h 25.7 km/h 41.7% 0.0 mm
18:49 21.8 °C 8.2 °C 1018.7 hPa NE 14.9 km/h 27.8 km/h 41.7% 0.0 mm
18:54 21.8 °C 8.3 °C 1018.7 hPa NE 13.7 km/h 27.4 km/h 42% 0.0 mm
18:59 21.8 °C 8.5 °C 1018.7 hPa NE 13.7 km/h 25.9 km/h 42.4% 0.0 mm
19:04 21.8 °C 8.6 °C 1018.7 hPa NE 13.7 km/h 25.9 km/h 43% 0.0 mm
19:09 21.7 °C 8.6 °C 1018.5 hPa NE 13.4 km/h 25.7 km/h 43.1% 0.0 mm
19:14 21.8 °C 8.7 °C 1018.5 hPa NE 13 km/h 27.4 km/h 43% 0.0 mm
19:19 21.8 °C 8.6 °C 1018.7 hPa NE 13.3 km/h 27.8 km/h 43% 0.0 mm
19:24 21.8 °C 8.7 °C 1018.7 hPa ENE 13.7 km/h 22.5 km/h 43% 0.0 mm
19:29 21.9 °C 8.7 °C 1018.7 hPa NE 12.7 km/h 20.9 km/h 43% 0.0 mm
19:34 21.9 °C 8.7 °C 1018.7 hPa NE 11.1 km/h 20.9 km/h 42.9% 0.0 mm
19:39 21.8 °C 8.7 °C 1018.7 hPa ENE 11.1 km/h 20.9 km/h 43% 0.0 mm
19:44 21.8 °C 8.7 °C 1018.7 hPa ENE 11.1 km/h 23.3 km/h 43% 0.0 mm
19:49 21.8 °C 8.7 °C 1018.8 hPa NE 12 km/h 24.5 km/h 43% 0.0 mm
19:54 21.7 °C 8.6 °C 1018.8 hPa NE 13.7 km/h 28.2 km/h 43% 0.0 mm
19:59 21.7 °C 8.5 °C 1018.8 hPa NE 13.1 km/h 27.4 km/h 43% 0.0 mm
20:04 21.6 °C 8.5 °C 1019.1 hPa NE 12.2 km/h 25.9 km/h 43% 0.0 mm
20:09 21.5 °C 8.4 °C 1019.1 hPa NE 12.8 km/h 25.7 km/h 43% 0.0 mm
20:14 21.4 °C 8.3 °C 1019.1 hPa NE 13.7 km/h 22.5 km/h 43% 0.0 mm
20:19 21.3 °C 8.2 °C 1019.3 hPa ENE 13 km/h 20.4 km/h 43% 0.0 mm
20:24 21.2 °C 8.1 °C 1019.3 hPa ENE 11.9 km/h 22.2 km/h 43% 0.0 mm
20:29 21 °C 8.1 °C 1019.3 hPa ENE 12.5 km/h 24.1 km/h 43.5% 0.0 mm
20:34 20.9 °C 8.4 °C 1019.6 hPa ENE 13.7 km/h 24.1 km/h 44.7% 0.0 mm
20:39 20.9 °C 8.6 °C 1019.6 hPa ENE 12.2 km/h 20.9 km/h 45.2% 0.0 mm
20:44 20.8 °C 8.4 °C 1019.6 hPa NE 9.5 km/h 19 km/h 45.1% 0.0 mm
20:49 20.6 °C 8.2 °C 1019.8 hPa NE 9.8 km/h 22.2 km/h 45% 0.0 mm
20:54 20.4 °C 8 °C 1019.8 hPa ENE 10.3 km/h 22.5 km/h 44.6% 0.0 mm
20:59 20.4 °C 7.1 °C 1019.8 hPa ENE 10.3 km/h 20.4 km/h 42.4% 0.0 mm
21:04 20.3 °C 6.6 °C 1020.1 hPa ENE 10.3 km/h 22.5 km/h 41% 0.0 mm
21:09 20.2 °C 6.3 °C 1020.1 hPa ENE 10.2 km/h 22.5 km/h 40.4% 0.0 mm
21:14 20.2 °C 6.1 °C 1020.1 hPa NE 10 km/h 17.7 km/h 40% 0.0 mm
21:19 20.1 °C 6.4 °C 1020.3 hPa NE 9.4 km/h 16.1 km/h 40.9% 0.0 mm
21:24 19.9 °C 6.3 °C 1020.3 hPa ENE 8.4 km/h 14.8 km/h 41% 0.0 mm
21:29 19.9 °C 6.6 °C 1020.3 hPa ENE 7.7 km/h 14.5 km/h 42% 0.0 mm
21:34 19.8 °C 6.5 °C 1020.5 hPa ENE 6.5 km/h 11.9 km/h 42% 0.0 mm
21:39 19.7 °C 6.5 °C 1020.5 hPa NE 6.5 km/h 11.3 km/h 42% 0.0 mm
21:44 19.6 °C 6.6 °C 1020.5 hPa NE 6.5 km/h 13.7 km/h 42.8% 0.0 mm
21:49 19.5 °C 6.9 °C 1020.6 hPa NE 6.6 km/h 16.7 km/h 43.8% 0.0 mm
21:54 19.4 °C 7.1 °C 1020.6 hPa NE 6.9 km/h 16.1 km/h 44.8% 0.0 mm
21:59 19.2 °C 7.3 °C 1020.6 hPa NE 6.9 km/h 13 km/h 45.9% 0.0 mm
22:04 19.1 °C 7.7 °C 1020.9 hPa NE 6.9 km/h 13 km/h 47.5% 0.0 mm
22:09 19 °C 8 °C 1020.9 hPa NE 7.2 km/h 13 km/h 48.9% 0.0 mm
22:14 18.9 °C 8.3 °C 1020.9 hPa NE 7.6 km/h 13.7 km/h 50.3% 0.0 mm
22:19 18.8 °C 8.6 °C 1021.2 hPa NE 7.9 km/h 14.5 km/h 51.4% 0.0 mm
22:24 18.7 °C 8.8 °C 1021.2 hPa NE 8.4 km/h 14 km/h 52.6% 0.0 mm
22:29 18.7 °C 9.1 °C 1021.2 hPa ENE 8.4 km/h 14.8 km/h 53.8% 0.0 mm
22:34 18.6 °C 9.3 °C 1021.5 hPa NE 8.4 km/h 12.9 km/h 54.7% 0.0 mm
22:39 18.6 °C 9.6 °C 1021.5 hPa NE 7.4 km/h 13 km/h 55.9% 0.0 mm
22:44 18.6 °C 9.9 °C 1021.5 hPa NE 5.8 km/h 13 km/h 57.3% 0.0 mm
22:49 18.4 °C 10.1 °C 1021.8 hPa NE 6.7 km/h 13 km/h 58.4% 0.0 mm
22:54 18.4 °C 10.4 °C 1021.8 hPa NE 8.4 km/h 14.8 km/h 59.6% 0.0 mm
22:59 18.4 °C 10.5 °C 1021.8 hPa NE 8.4 km/h 14.5 km/h 60% 0.0 mm
23:04 18.3 °C 10.5 °C 1021.9 hPa NE 8.4 km/h 14.5 km/h 60% 0.0 mm
23:09 18.3 °C 10.5 °C 1021.9 hPa NE 7.6 km/h 11.9 km/h 60.4% 0.0 mm
23:14 18.3 °C 10.7 °C 1021.9 hPa NE 6.5 km/h 11.3 km/h 61% 0.0 mm
23:19 18.3 °C 10.7 °C 1022.1 hPa NE 6.5 km/h 10 km/h 61.2% 0.0 mm
23:24 18.2 °C 10.7 °C 1022.1 hPa NE 6.5 km/h 9.7 km/h 61.7% 0.0 mm
23:29 18.2 °C 10.9 °C 1022.1 hPa NE 6.2 km/h 9.7 km/h 62.3% 0.0 mm
23:34 18.2 °C 11 °C 1022.2 hPa NE 5.8 km/h 8.4 km/h 63% 0.0 mm
23:39 18.1 °C 11.1 °C 1022.2 hPa NE 5.8 km/h 10 km/h 63.5% 0.0 mm
23:44 18.1 °C 11.1 °C 1022.2 hPa NE 5.8 km/h 9.7 km/h 63.9% 0.0 mm
23:49 18 °C 11.1 °C 1022.3 hPa NE 5.5 km/h 9.7 km/h 64% 0.0 mm
23:54 17.9 °C 11 °C 1022.3 hPa NE 5 km/h 10 km/h 63.8% 0.0 mm
23:59 17.8 °C 10.7 °C 1022.3 hPa NE 5.6 km/h 9.7 km/h 63% 0.0 mm
Murcia-Puente Tocinos, Espa?a
Compliments of Weather Underground - 3 mb

La estación de MeteoMurcia.com, publica sus datos en los siguientes proyectos:

Weather Underground PWS IMURCIAP2 Meteoclimatic www.awekas.at

W3Counter
Web Analytics